createdAt,value
2018-09-19T00:00:25.294Z,0.00
2018-09-19T00:01:25.143Z,0.00
2018-09-19T00:02:25.197Z,0.00
2018-09-19T00:03:25.197Z,0.00
2018-09-19T00:04:25.222Z,0.00
2018-09-19T00:05:25.259Z,0.00
2018-09-19T00:06:25.273Z,0.00
2018-09-19T00:07:25.302Z,0.00
2018-09-19T00:08:25.330Z,0.00
2018-09-19T00:09:25.358Z,0.00
2018-09-19T00:10:25.375Z,0.00
2018-09-19T00:11:25.395Z,0.00
2018-09-19T00:12:25.417Z,0.00
2018-09-19T00:13:25.448Z,0.00
2018-09-19T00:14:25.476Z,0.00
2018-09-19T00:15:25.512Z,0.00
2018-09-19T00:16:25.522Z,0.00
2018-09-19T00:17:25.568Z,0.00
2018-09-19T00:18:25.578Z,0.00
2018-09-19T00:19:25.603Z,0.00
2018-09-19T00:20:25.630Z,0.00
2018-09-19T00:21:25.644Z,0.00
2018-09-19T00:22:25.739Z,0.00
2018-09-19T00:23:25.698Z,0.00
2018-09-19T00:24:25.828Z,0.00
2018-09-19T00:25:25.771Z,0.00
2018-09-19T00:26:25.775Z,0.00
2018-09-19T00:27:25.803Z,0.00
2018-09-19T00:28:25.822Z,0.00
2018-09-19T00:29:25.852Z,0.00
2018-09-19T00:30:25.870Z,0.00
2018-09-19T00:31:25.916Z,0.00
2018-09-19T00:32:25.924Z,0.00
2018-09-19T00:33:25.982Z,0.00
2018-09-19T00:34:25.975Z,0.00
2018-09-19T00:35:26.070Z,0.00
2018-09-19T00:36:26.022Z,0.00
2018-09-19T00:37:26.059Z,0.00
2018-09-19T00:38:26.095Z,0.00
2018-09-19T00:39:26.099Z,0.00
2018-09-19T00:40:26.128Z,0.00
2018-09-19T00:41:26.159Z,0.00
2018-09-19T00:42:26.181Z,0.00
2018-09-19T00:43:26.221Z,0.00
2018-09-19T00:44:26.233Z,0.00
2018-09-19T00:45:26.250Z,0.00
2018-09-19T00:46:26.361Z,0.00
2018-09-19T00:47:26.310Z,0.00
2018-09-19T00:48:26.325Z,0.00
2018-09-19T00:49:26.351Z,0.00
2018-09-19T00:50:26.377Z,0.00
2018-09-19T00:51:26.416Z,0.00
2018-09-19T00:52:26.429Z,0.00
2018-09-19T00:53:26.479Z,0.00
2018-09-19T00:54:26.481Z,0.00
2018-09-19T00:55:26.503Z,0.00
2018-09-19T00:56:26.533Z,0.00
2018-09-19T00:57:26.640Z,0.00
2018-09-19T00:58:26.626Z,0.00
2018-09-19T00:59:26.663Z,0.00
2018-09-19T01:00:26.648Z,0.00
2018-09-19T01:01:26.652Z,0.00
2018-09-19T01:02:26.723Z,0.00
2018-09-19T01:03:26.703Z,0.00
2018-09-19T01:04:26.728Z,0.00
2018-09-19T01:05:26.748Z,0.00
2018-09-19T01:06:26.795Z,0.00
2018-09-19T01:07:26.804Z,0.00
2018-09-19T01:08:26.824Z,0.00
2018-09-19T01:09:26.859Z,0.00
2018-09-19T01:10:26.875Z,0.00
2018-09-19T01:11:26.902Z,0.00
2018-09-19T01:12:26.925Z,0.00
2018-09-19T01:13:26.952Z,0.00
2018-09-19T01:14:26.970Z,0.00
2018-09-19T01:15:27.012Z,0.00
2018-09-19T01:16:27.022Z,0.00
2018-09-19T01:17:27.054Z,0.00
2018-09-19T01:18:27.074Z,0.00
2018-09-19T01:19:27.096Z,0.00
2018-09-19T01:20:27.117Z,0.00
2018-09-19T01:21:27.219Z,0.00
2018-09-19T01:22:27.176Z,0.00
2018-09-19T01:23:27.211Z,0.00
2018-09-19T01:24:27.218Z,0.00
2018-09-19T01:25:27.260Z,0.00
2018-09-19T01:26:27.277Z,0.00
2018-09-19T01:27:27.298Z,0.00
2018-09-19T01:28:27.321Z,0.00
2018-09-19T01:29:27.343Z,0.00
2018-09-19T01:30:27.373Z,0.00
2018-09-19T01:31:27.389Z,0.00
2018-09-19T01:32:27.439Z,0.00
2018-09-19T01:33:27.451Z,0.00
2018-09-19T01:34:27.473Z,0.00
2018-09-19T01:35:27.496Z,0.00
2018-09-19T01:36:27.523Z,0.00
2018-09-19T01:37:27.556Z,0.00
2018-09-19T01:38:27.575Z,0.00
2018-09-19T01:39:27.594Z,0.00
2018-09-19T01:40:27.617Z,0.00
2018-09-19T01:41:27.647Z,0.00
2018-09-19T01:43:27.705Z,0.00
2018-09-19T01:44:27.727Z,0.00
2018-09-19T01:45:27.743Z,0.00
2018-09-19T01:46:27.845Z,0.00
2018-09-19T01:47:27.796Z,0.00
2018-09-19T01:48:27.811Z,0.00
2018-09-19T01:49:27.843Z,0.00
2018-09-19T01:50:27.868Z,0.00
2018-09-19T01:51:27.896Z,0.00
2018-09-19T01:52:27.923Z,0.00
2018-09-19T01:53:28.623Z,0.00
2018-09-19T01:54:27.966Z,0.00
2018-09-19T01:55:27.999Z,0.00
2018-09-19T01:56:28.021Z,0.00
2018-09-19T01:57:28.051Z,0.00
2018-09-19T01:58:28.072Z,0.00
2018-09-19T01:59:28.105Z,0.00
2018-09-19T02:00:28.112Z,0.00
2018-09-19T02:01:28.141Z,0.00
2018-09-19T02:02:28.166Z,0.00
2018-09-19T02:03:28.184Z,0.00
2018-09-19T02:04:28.209Z,0.00
2018-09-19T02:05:28.243Z,0.00
2018-09-19T02:06:28.269Z,0.00
2018-09-19T02:07:28.345Z,0.00
2018-09-19T02:08:28.307Z,0.00
2018-09-19T02:09:28.335Z,0.00
2018-09-19T02:10:28.362Z,0.00
2018-09-19T02:11:28.381Z,0.00
2018-09-19T02:12:28.413Z,0.00
2018-09-19T02:13:28.428Z,0.00
2018-09-19T02:14:28.457Z,0.00
2018-09-19T02:15:28.482Z,0.00
2018-09-19T02:16:28.537Z,0.00
2018-09-19T02:17:28.529Z,0.00
2018-09-19T02:18:28.558Z,0.00
2018-09-19T02:19:28.580Z,0.00
2018-09-19T02:20:28.617Z,0.00
2018-09-19T02:21:28.623Z,0.00
2018-09-19T02:22:28.671Z,0.00
2018-09-19T02:23:28.677Z,0.00
2018-09-19T02:24:28.701Z,0.00
2018-09-19T02:25:28.725Z,0.00
2018-09-19T02:26:28.754Z,0.00
2018-09-19T02:27:28.787Z,0.00
2018-09-19T02:28:28.818Z,0.00
2018-09-19T02:29:28.824Z,0.00
2018-09-19T02:30:28.855Z,0.00
2018-09-19T02:31:28.871Z,0.00
2018-09-19T02:32:28.894Z,0.00
2018-09-19T02:33:28.923Z,0.00
2018-09-19T02:34:28.943Z,0.00
2018-09-19T02:35:28.997Z,0.00
2018-09-19T02:36:29.000Z,0.00
2018-09-19T02:37:29.032Z,0.00
2018-09-19T02:38:29.034Z,0.00
2018-09-19T02:39:29.065Z,0.00
2018-09-19T02:40:29.094Z,0.00
2018-09-19T02:41:29.124Z,0.00
2018-09-19T02:42:29.135Z,0.00
2018-09-19T02:43:29.156Z,0.00
2018-09-19T02:44:29.195Z,0.00
2018-09-19T02:45:29.243Z,0.00
2018-09-19T02:46:29.255Z,0.00
2018-09-19T02:47:29.256Z,0.00
2018-09-19T02:48:29.293Z,0.00
2018-09-19T02:49:29.307Z,0.00
2018-09-19T02:50:29.344Z,0.00
2018-09-19T02:51:29.360Z,0.00
2018-09-19T02:52:29.408Z,0.00
2018-09-19T02:53:29.410Z,0.00
2018-09-19T02:54:29.442Z,0.00
2018-09-19T02:55:29.466Z,0.00
2018-09-19T02:57:29.511Z,0.00
2018-09-19T02:58:29.529Z,0.00
2018-09-19T02:59:29.551Z,0.00
2018-09-19T03:00:29.577Z,0.00
2018-09-19T03:01:29.596Z,0.00
2018-09-19T03:02:29.709Z,0.00
2018-09-19T03:03:29.650Z,0.00
2018-09-19T03:04:29.672Z,0.00
2018-09-19T03:05:29.719Z,0.00
2018-09-19T03:06:29.769Z,0.00
2018-09-19T03:07:30.659Z,0.00
2018-09-19T03:08:29.778Z,0.00
2018-09-19T03:09:29.797Z,0.00
2018-09-19T03:10:29.815Z,0.00
2018-09-19T03:11:29.845Z,0.00
2018-09-19T03:12:29.866Z,0.00
2018-09-19T03:13:29.883Z,0.00
2018-09-19T03:14:29.925Z,0.00
2018-09-19T03:15:29.942Z,0.00
2018-09-19T03:16:29.981Z,0.00
2018-09-19T03:17:30.077Z,0.00
2018-09-19T03:18:30.011Z,0.00
2018-09-19T03:19:30.037Z,0.00
2018-09-19T03:20:30.070Z,0.00
2018-09-19T03:21:30.091Z,0.00
2018-09-19T03:22:30.104Z,0.00
2018-09-19T03:23:30.130Z,0.00
2018-09-19T03:24:30.153Z,0.00
2018-09-19T03:25:30.173Z,0.00
2018-09-19T03:26:30.213Z,0.00
2018-09-19T03:27:30.234Z,0.00
2018-09-19T03:28:30.249Z,0.00
2018-09-19T03:29:30.281Z,0.00
2018-09-19T03:30:30.305Z,0.00
2018-09-19T03:31:30.320Z,0.00
2018-09-19T03:32:30.354Z,0.00
2018-09-19T03:33:30.370Z,0.00
2018-09-19T03:34:30.395Z,0.00
2018-09-19T03:35:30.445Z,0.00
2018-09-19T03:36:30.447Z,0.00
2018-09-19T03:37:30.470Z,0.00
2018-09-19T03:38:30.520Z,0.00
2018-09-19T03:39:30.523Z,0.00
2018-09-19T03:40:30.556Z,0.00
2018-09-19T03:41:30.570Z,0.00
2018-09-19T03:42:30.591Z,0.00
2018-09-19T03:43:30.620Z,0.00
2018-09-19T03:44:30.636Z,0.00
2018-09-19T03:45:30.662Z,0.00
2018-09-19T03:46:30.681Z,0.00
2018-09-19T03:47:30.719Z,0.00
2018-09-19T03:48:30.823Z,0.00
2018-09-19T03:49:30.761Z,0.00
2018-09-19T03:50:30.784Z,0.00
2018-09-19T03:51:30.800Z,0.00
2018-09-19T03:52:30.837Z,0.00
2018-09-19T03:53:30.887Z,0.00
2018-09-19T03:54:30.873Z,0.00
2018-09-19T03:55:30.902Z,0.00
2018-09-19T03:56:30.929Z,0.00
2018-09-19T03:57:30.954Z,0.00
2018-09-19T03:58:30.985Z,0.00
2018-09-19T03:59:31.029Z,0.00
2018-09-19T04:00:31.034Z,0.00
2018-09-19T04:01:31.055Z,0.00
2018-09-19T04:02:31.076Z,0.00
2018-09-19T04:03:31.100Z,0.00
2018-09-19T04:04:31.118Z,0.00
2018-09-19T04:05:31.152Z,0.00
2018-09-19T04:06:31.173Z,0.00
2018-09-19T04:07:31.190Z,0.00
2018-09-19T04:08:31.217Z,0.00
2018-09-19T04:09:32.200Z,0.00
2018-09-19T04:10:31.266Z,0.00
2018-09-19T04:11:31.344Z,0.00
2018-09-19T04:12:31.328Z,0.00
2018-09-19T04:13:31.340Z,0.00
2018-09-19T04:14:31.445Z,0.00
2018-09-19T04:15:31.406Z,0.00
2018-09-19T04:16:31.405Z,0.00
2018-09-19T04:17:31.429Z,0.00
2018-09-19T04:18:31.462Z,0.00
2018-09-19T04:19:31.484Z,0.00
2018-09-19T04:20:31.516Z,0.00
2018-09-19T04:21:31.530Z,0.00
2018-09-19T04:22:31.566Z,0.00
2018-09-19T04:23:31.585Z,0.00
2018-09-19T04:24:31.614Z,0.00
2018-09-19T04:25:31.628Z,0.00
2018-09-19T04:26:31.672Z,0.00
2018-09-19T04:27:31.675Z,0.00
2018-09-19T04:28:31.720Z,0.00
2018-09-19T04:29:31.722Z,0.00
2018-09-19T04:30:31.751Z,0.00
2018-09-19T04:31:31.776Z,0.00
2018-09-19T04:32:31.820Z,0.00
2018-09-19T04:33:31.820Z,0.00
2018-09-19T04:34:31.864Z,0.00
2018-09-19T04:35:31.868Z,0.00
2018-09-19T04:36:31.935Z,0.00
2018-09-19T04:37:31.942Z,0.00
2018-09-19T04:38:31.959Z,0.00
2018-09-19T04:39:31.963Z,0.00
2018-09-19T04:40:31.989Z,0.00
2018-09-19T04:41:32.012Z,0.00
2018-09-19T04:42:32.044Z,0.00
2018-09-19T04:43:32.059Z,0.00
2018-09-19T04:44:32.086Z,0.00
2018-09-19T04:45:32.112Z,0.00
2018-09-19T04:46:32.137Z,0.00
2018-09-19T04:47:32.161Z,0.00
2018-09-19T04:48:32.177Z,0.00
2018-09-19T04:49:32.213Z,0.00
2018-09-19T04:50:32.249Z,0.00
2018-09-19T04:51:32.366Z,0.00
2018-09-19T04:52:32.279Z,0.00
2018-09-19T04:53:32.302Z,0.00
2018-09-19T04:54:32.330Z,0.00
2018-09-19T04:55:32.353Z,0.00
2018-09-19T04:56:32.391Z,0.00
2018-09-19T04:57:32.399Z,0.00
2018-09-19T04:58:32.432Z,0.00
2018-09-19T04:59:32.442Z,4.00
2018-09-19T05:00:32.469Z,4.00
2018-09-19T05:01:32.495Z,4.00
2018-09-19T05:02:32.514Z,0.00
2018-09-19T05:03:32.591Z,0.00
2018-09-19T05:04:32.562Z,0.00
2018-09-19T05:05:32.601Z,4.00
2018-09-19T05:06:32.615Z,4.00
2018-09-19T05:07:32.637Z,4.00
2018-09-19T05:08:32.660Z,4.00
2018-09-19T05:09:32.829Z,4.00
2018-09-19T05:10:32.723Z,8.00
2018-09-19T05:11:32.819Z,4.00
2018-09-19T05:12:32.758Z,8.00
2018-09-19T05:13:32.799Z,8.00
2018-09-19T05:14:32.813Z,4.00
2018-09-19T05:15:32.823Z,8.00
2018-09-19T05:16:32.848Z,8.00
2018-09-19T05:17:32.875Z,8.00
2018-09-19T05:18:33.724Z,12.00
2018-09-19T05:19:32.940Z,8.00
2018-09-19T05:20:32.954Z,12.00
2018-09-19T05:21:32.969Z,12.00
2018-09-19T05:22:33.051Z,16.00
2018-09-19T05:23:33.056Z,12.00
2018-09-19T05:24:33.048Z,16.00
2018-09-19T05:25:33.066Z,12.00
2018-09-19T05:26:33.089Z,16.00
2018-09-19T05:27:33.113Z,16.00
2018-09-19T05:28:33.156Z,16.00
2018-09-19T05:29:33.173Z,16.00
2018-09-19T05:30:33.191Z,20.00
2018-09-19T05:31:33.262Z,16.00
2018-09-19T05:32:33.240Z,20.00
2018-09-19T05:33:33.361Z,20.00
2018-09-19T05:34:33.323Z,20.00
2018-09-19T05:35:33.315Z,20.00
2018-09-19T05:36:33.327Z,24.00
2018-09-19T05:37:33.376Z,20.00
2018-09-19T05:38:33.376Z,24.00
2018-09-19T05:39:33.406Z,24.00
2018-09-19T05:40:33.422Z,24.00
2018-09-19T05:41:33.485Z,24.00
2018-09-19T05:42:33.474Z,28.00
2018-09-19T05:43:33.500Z,28.00
2018-09-19T05:44:33.525Z,32.00
2018-09-19T05:45:33.651Z,28.00
2018-09-19T05:46:33.595Z,28.00
2018-09-19T05:47:33.672Z,32.00
2018-09-19T05:48:33.614Z,32.00
2018-09-19T05:49:33.641Z,36.00
2018-09-19T05:50:33.660Z,36.00
2018-09-19T05:51:33.684Z,32.00
2018-09-19T05:52:33.714Z,32.00
2018-09-19T05:53:33.740Z,36.00
2018-09-19T05:54:33.786Z,36.00
2018-09-19T05:55:33.784Z,40.00
2018-09-19T05:56:33.807Z,40.00
2018-09-19T05:57:33.851Z,40.00
2018-09-19T05:58:33.851Z,40.00
2018-09-19T05:59:33.932Z,40.00
2018-09-19T06:00:33.945Z,44.00
2018-09-19T06:01:33.946Z,44.00
2018-09-19T06:02:33.962Z,44.00
2018-09-19T06:03:34.048Z,48.00
2018-09-19T06:04:34.018Z,48.00
2018-09-19T06:05:34.036Z,48.00
2018-09-19T06:06:34.082Z,48.00
2018-09-19T06:07:34.159Z,52.00
2018-09-19T06:08:34.180Z,52.00
2018-09-19T06:09:34.189Z,56.00
2018-09-19T06:10:34.207Z,56.00
2018-09-19T06:11:34.162Z,56.00
2018-09-19T06:12:34.213Z,56.00
2018-09-19T06:13:34.237Z,60.00
2018-09-19T06:14:34.234Z,60.00
2018-09-19T06:15:34.263Z,60.00
2018-09-19T06:16:34.309Z,60.00
2018-09-19T06:17:34.300Z,64.00
2018-09-19T06:18:34.356Z,64.00
2018-09-19T06:19:34.378Z,68.00
2018-09-19T06:20:34.374Z,72.00
2018-09-19T06:21:34.399Z,80.00
2018-09-19T06:22:34.417Z,88.00
2018-09-19T06:23:34.589Z,96.00
2018-09-19T06:24:34.558Z,104.00
2018-09-19T06:25:34.499Z,108.00
2018-09-19T06:26:34.556Z,112.00
2018-09-19T06:27:34.558Z,112.00
2018-09-19T06:28:34.576Z,116.00
2018-09-19T06:29:34.590Z,112.00
2018-09-19T06:30:34.623Z,108.00
2018-09-19T06:31:34.675Z,104.00
2018-09-19T06:32:34.739Z,104.00
2018-09-19T06:33:34.804Z,100.00
2018-09-19T06:34:34.702Z,100.00
2018-09-19T06:35:34.727Z,104.00
2018-09-19T06:36:34.744Z,104.00
2018-09-19T06:37:34.787Z,104.00
2018-09-19T06:38:34.888Z,108.00
2018-09-19T06:39:34.818Z,104.00
2018-09-19T06:40:34.916Z,108.00
2018-09-19T06:41:34.871Z,108.00
2018-09-19T06:42:34.903Z,108.00
2018-09-19T06:43:34.952Z,112.00
2018-09-19T06:44:35.010Z,112.00
2018-09-19T06:45:35.105Z,116.00
2018-09-19T06:46:35.053Z,120.00
2018-09-19T06:47:35.035Z,124.00
2018-09-19T06:48:35.067Z,124.00
2018-09-19T06:49:35.072Z,128.00
2018-09-19T06:50:35.088Z,136.00
2018-09-19T06:51:35.110Z,136.00
2018-09-19T06:52:35.184Z,140.00
2018-09-19T06:53:35.183Z,148.00
2018-09-19T06:54:35.256Z,156.00
2018-09-19T06:55:35.244Z,160.00
2018-09-19T06:56:35.288Z,176.00
2018-09-19T06:57:35.246Z,188.00
2018-09-19T06:58:35.288Z,200.00
2018-09-19T06:59:35.326Z,208.00
2018-09-19T07:00:35.339Z,216.00
2018-09-19T07:01:35.379Z,220.00
2018-09-19T07:02:35.377Z,224.00
2018-09-19T07:03:35.407Z,232.00
2018-09-19T07:04:35.422Z,240.00
2018-09-19T07:05:35.459Z,252.00
2018-09-19T07:06:35.460Z,268.00
2018-09-19T07:07:35.491Z,288.00
2018-09-19T07:08:35.521Z,300.00
2018-09-19T07:09:35.548Z,312.00
2018-09-19T07:10:35.666Z,328.00
2018-09-19T07:11:35.596Z,336.00
2018-09-19T07:12:35.710Z,344.00
2018-09-19T07:13:35.696Z,352.00
2018-09-19T07:14:35.721Z,356.00
2018-09-19T07:15:35.706Z,376.00
2018-09-19T07:16:35.819Z,404.00
2018-09-19T07:17:35.737Z,460.00
2018-09-19T07:18:35.946Z,528.00
2018-09-19T07:19:35.794Z,576.00
2018-09-19T07:20:35.806Z,584.00
2018-09-19T07:21:35.846Z,552.00
2018-09-19T07:22:35.853Z,504.00
2018-09-19T07:23:35.895Z,464.00
2018-09-19T07:24:35.911Z,436.00
2018-09-19T07:25:35.922Z,396.00
2018-09-19T07:26:35.983Z,384.00
2018-09-19T07:27:35.984Z,396.00
2018-09-19T07:28:36.079Z,424.00
2018-09-19T07:29:36.078Z,460.00
2018-09-19T07:30:36.131Z,496.00
2018-09-19T07:31:36.070Z,492.00
2018-09-19T07:32:36.159Z,440.00
2018-09-19T07:33:36.113Z,352.00
2018-09-19T07:34:36.230Z,320.00
2018-09-19T07:35:36.180Z,304.00
2018-09-19T07:36:36.195Z,304.00
2018-09-19T07:37:36.212Z,292.00
2018-09-19T07:38:36.236Z,272.00
2018-09-19T07:39:36.268Z,248.00
2018-09-19T07:40:36.305Z,240.00
2018-09-19T07:41:36.320Z,240.00
2018-09-19T07:42:36.374Z,236.00
2018-09-19T07:43:36.388Z,224.00
2018-09-19T07:44:36.419Z,212.00
2018-09-19T07:45:36.439Z,220.00
2018-09-19T07:46:36.489Z,224.00
2018-09-19T07:47:36.473Z,252.00
2018-09-19T07:48:36.491Z,264.00
2018-09-19T07:49:36.516Z,260.00
2018-09-19T07:50:36.529Z,248.00
2018-09-19T07:51:36.555Z,240.00
2018-09-19T07:52:36.574Z,236.00
2018-09-19T07:53:36.645Z,232.00
2018-09-19T07:54:36.673Z,232.00
2018-09-19T07:55:36.657Z,220.00
2018-09-19T07:56:36.765Z,220.00
2018-09-19T07:57:36.694Z,224.00
2018-09-19T07:58:36.775Z,220.00
2018-09-19T07:59:36.789Z,228.00
2018-09-19T08:00:36.906Z,232.00
2018-09-19T08:01:36.791Z,240.00
2018-09-19T08:02:36.816Z,240.00
2018-09-19T08:03:36.895Z,252.00
2018-09-19T08:04:36.930Z,256.00
2018-09-19T08:05:36.908Z,260.00
2018-09-19T08:06:36.919Z,260.00
2018-09-19T08:07:36.946Z,264.00
2018-09-19T08:08:36.963Z,264.00
2018-09-19T08:09:36.993Z,264.00
2018-09-19T08:10:37.013Z,272.00
2018-09-19T08:11:37.040Z,276.00
2018-09-19T08:12:37.064Z,272.00
2018-09-19T08:13:37.096Z,260.00
2018-09-19T08:14:37.151Z,248.00
2018-09-19T08:15:37.272Z,248.00
2018-09-19T08:16:37.168Z,264.00
2018-09-19T08:17:37.259Z,264.00
2018-09-19T08:18:37.231Z,296.00
2018-09-19T08:19:37.307Z,276.00
2018-09-19T08:20:37.268Z,284.00
2018-09-19T08:21:37.283Z,276.00
2018-09-19T08:22:37.363Z,280.00
2018-09-19T08:23:37.326Z,292.00
2018-09-19T08:24:37.366Z,304.00
2018-09-19T08:25:37.384Z,304.00
2018-09-19T08:26:37.409Z,300.00
2018-09-19T08:27:37.439Z,288.00
2018-09-19T08:28:37.460Z,296.00
2018-09-19T08:29:37.485Z,300.00
2018-09-19T08:30:37.501Z,312.00
2018-09-19T08:31:37.540Z,328.00
2018-09-19T08:32:37.555Z,372.00
2018-09-19T08:33:37.579Z,364.00
2018-09-19T08:34:37.602Z,368.00
2018-09-19T08:35:37.626Z,352.00
2018-09-19T08:36:37.647Z,348.00
2018-09-19T08:37:37.675Z,368.00
2018-09-19T08:38:37.719Z,388.00
2018-09-19T08:39:37.794Z,340.00
2018-09-19T08:40:37.754Z,340.00
2018-09-19T08:41:37.794Z,332.00
2018-09-19T08:42:37.839Z,348.00
2018-09-19T08:43:37.834Z,400.00
2018-09-19T08:44:37.873Z,432.00
2018-09-19T08:45:37.874Z,460.00
2018-09-19T08:46:37.900Z,364.00
2018-09-19T08:47:37.927Z,376.00
2018-09-19T08:48:37.960Z,376.00
2018-09-19T08:49:37.973Z,380.00
2018-09-19T08:50:38.040Z,396.00
2018-09-19T08:51:38.021Z,392.00
2018-09-19T08:52:38.059Z,400.00
2018-09-19T08:53:38.076Z,408.00
2018-09-19T08:54:38.104Z,448.00
2018-09-19T08:55:38.122Z,468.00
2018-09-19T08:56:38.172Z,544.00
2018-09-19T08:57:38.169Z,620.00
2018-09-19T08:58:38.195Z,688.00
2018-09-19T08:59:38.233Z,644.00
2018-09-19T09:00:38.239Z,564.00
2018-09-19T09:01:38.275Z,572.00
2018-09-19T09:02:38.314Z,624.00
2018-09-19T09:03:38.320Z,584.00
2018-09-19T09:04:38.380Z,640.00
2018-09-19T09:05:38.391Z,692.00
2018-09-19T09:06:38.414Z,764.00
2018-09-19T09:07:38.422Z,800.00
2018-09-19T09:08:38.451Z,832.00
2018-09-19T09:09:38.477Z,764.00
2018-09-19T09:10:38.496Z,852.00
2018-09-19T09:11:38.524Z,800.00
2018-09-19T09:12:38.596Z,880.00
2018-09-19T09:13:38.570Z,1020.00
2018-09-19T09:14:38.625Z,1240.00
2018-09-19T09:15:38.630Z,1332.00
2018-09-19T09:16:38.647Z,1060.00
2018-09-19T09:17:38.693Z,1008.00
2018-09-19T09:18:38.703Z,1064.00
2018-09-19T09:19:38.727Z,1076.00
2018-09-19T09:20:38.749Z,1228.00
2018-09-19T09:21:38.782Z,1348.00
2018-09-19T09:22:38.809Z,1388.00
2018-09-19T09:23:38.838Z,1436.00
2018-09-19T09:24:38.856Z,1552.00
2018-09-19T09:25:38.937Z,1580.00
2018-09-19T09:26:38.925Z,1364.00
2018-09-19T09:27:38.944Z,1152.00
2018-09-19T09:28:38.966Z,988.00
2018-09-19T09:29:38.995Z,916.00
2018-09-19T09:30:39.024Z,836.00
2018-09-19T09:31:39.055Z,732.00
2018-09-19T09:32:39.078Z,664.00
2018-09-19T09:33:39.094Z,584.00
2018-09-19T09:34:39.117Z,532.00
2018-09-19T09:35:39.148Z,516.00
2018-09-19T09:36:39.231Z,512.00
2018-09-19T09:37:39.200Z,500.00
2018-09-19T09:38:39.229Z,504.00
2018-09-19T09:39:39.249Z,512.00
2018-09-19T09:40:39.337Z,476.00
2018-09-19T09:41:39.306Z,484.00
2018-09-19T09:42:39.341Z,472.00
2018-09-19T09:43:39.422Z,448.00
2018-09-19T09:44:39.388Z,448.00
2018-09-19T09:45:39.408Z,472.00
2018-09-19T09:46:39.437Z,472.00
2018-09-19T09:47:39.458Z,460.00
2018-09-19T09:48:39.481Z,456.00
2018-09-19T09:49:39.556Z,460.00
2018-09-19T09:50:39.527Z,472.00
2018-09-19T09:51:39.557Z,480.00
2018-09-19T09:52:39.588Z,492.00
2018-09-19T09:53:39.613Z,512.00
2018-09-19T09:54:39.646Z,624.00
2018-09-19T09:55:39.662Z,628.00
2018-09-19T09:56:39.763Z,656.00
2018-09-19T09:57:39.754Z,700.00
2018-09-19T09:58:39.738Z,716.00
2018-09-19T09:59:39.770Z,744.00
2018-09-19T10:00:39.809Z,796.00
2018-09-19T10:01:39.820Z,896.00
2018-09-19T10:02:39.860Z,968.00
2018-09-19T10:03:39.878Z,984.00
2018-09-19T10:04:39.903Z,860.00
2018-09-19T10:05:39.928Z,720.00
2018-09-19T10:06:39.995Z,628.00
2018-09-19T10:07:40.004Z,600.00
2018-09-19T10:08:40.006Z,592.00
2018-09-19T10:09:40.026Z,560.00
2018-09-19T10:10:40.050Z,544.00
2018-09-19T10:11:40.075Z,536.00
2018-09-19T10:12:40.124Z,548.00
2018-09-19T10:13:40.176Z,524.00
2018-09-19T10:14:40.162Z,528.00
2018-09-19T10:15:40.186Z,540.00
2018-09-19T10:16:40.208Z,540.00
2018-09-19T10:17:40.234Z,548.00
2018-09-19T10:18:40.421Z,564.00
2018-09-19T10:19:40.313Z,580.00
2018-09-19T10:20:40.306Z,584.00
2018-09-19T10:21:40.336Z,604.00
2018-09-19T10:22:40.365Z,600.00
2018-09-19T10:23:40.387Z,600.00
2018-09-19T10:24:40.408Z,572.00
2018-09-19T10:25:40.437Z,600.00
2018-09-19T10:26:40.471Z,656.00
2018-09-19T10:27:40.498Z,740.00
2018-09-19T10:28:40.520Z,764.00
2018-09-19T10:29:40.577Z,896.00
2018-09-19T10:30:40.582Z,856.00
2018-09-19T10:31:40.591Z,788.00
2018-09-19T10:32:40.626Z,780.00
2018-09-19T10:33:40.641Z,812.00
2018-09-19T10:34:40.671Z,812.00
2018-09-19T10:35:40.696Z,780.00
2018-09-19T10:36:40.727Z,748.00
2018-09-19T10:37:40.750Z,716.00
2018-09-19T10:38:40.783Z,704.00
2018-09-19T10:39:40.816Z,708.00
2018-09-19T10:40:40.859Z,712.00
2018-09-19T10:41:40.883Z,728.00
2018-09-19T10:42:40.944Z,756.00
2018-09-19T10:43:40.909Z,732.00
2018-09-19T10:44:40.936Z,684.00
2018-09-19T10:45:40.967Z,700.00
2018-09-19T10:46:40.992Z,680.00
2018-09-19T10:47:41.016Z,656.00
2018-09-19T10:48:41.046Z,660.00
2018-09-19T10:49:41.070Z,624.00
2018-09-19T10:50:41.107Z,628.00
2018-09-19T10:51:41.133Z,640.00
2018-09-19T10:52:41.144Z,648.00
2018-09-19T10:53:41.194Z,652.00
2018-09-19T10:54:41.895Z,660.00
2018-09-19T10:55:41.234Z,676.00
2018-09-19T10:56:41.282Z,672.00
2018-09-19T10:57:41.332Z,672.00
2018-09-19T10:58:41.300Z,700.00
2018-09-19T10:59:41.333Z,788.00
2018-09-19T11:00:41.355Z,880.00
2018-09-19T11:01:41.414Z,884.00
2018-09-19T11:02:41.414Z,984.00
2018-09-19T11:03:41.445Z,1012.00
2018-09-19T11:04:41.460Z,1080.00
2018-09-19T11:05:41.488Z,1168.00
2018-09-19T11:06:41.526Z,1324.00
2018-09-19T11:07:41.545Z,1396.00
2018-09-19T11:08:41.568Z,1328.00
2018-09-19T11:09:41.604Z,1308.00
2018-09-19T11:10:41.621Z,1384.00
2018-09-19T11:11:41.649Z,1544.00
2018-09-19T11:12:41.684Z,1872.00
2018-09-19T11:13:41.740Z,1984.00
2018-09-19T11:14:41.729Z,2140.00
2018-09-19T11:15:41.757Z,2380.00
2018-09-19T11:16:41.789Z,2684.00
2018-09-19T11:17:41.806Z,2692.00
2018-09-19T11:18:41.843Z,3364.00
2018-09-19T11:19:41.871Z,3296.00
2018-09-19T11:20:41.890Z,3492.00
2018-09-19T11:21:41.918Z,3360.00
2018-09-19T11:22:41.945Z,3256.00
2018-09-19T11:23:41.968Z,2868.00
2018-09-19T11:24:42.001Z,2592.00
2018-09-19T11:25:42.035Z,2512.00
2018-09-19T11:26:42.052Z,2644.00
2018-09-19T11:27:42.094Z,2964.00
2018-09-19T11:28:42.911Z,3376.00
2018-09-19T11:29:42.138Z,3660.00
2018-09-19T11:30:42.202Z,1744.00
2018-09-19T11:31:42.193Z,3120.00
2018-09-19T11:32:42.217Z,3172.00
2018-09-19T11:33:42.283Z,2796.00
2018-09-19T11:34:42.274Z,2248.00
2018-09-19T11:36:42.323Z,3460.00
2018-09-19T11:37:42.353Z,3432.00
2018-09-19T11:38:42.385Z,3364.00
2018-09-19T11:39:42.424Z,2928.00
2018-09-19T11:40:42.435Z,2772.00
2018-09-19T11:41:42.474Z,2600.00
2018-09-19T11:42:42.493Z,2732.00
2018-09-19T11:43:42.521Z,3068.00
2018-09-19T11:44:42.549Z,1196.00
2018-09-19T11:45:42.585Z,708.00
2018-09-19T11:46:42.740Z,3500.00
2018-09-19T11:47:42.639Z,612.00
2018-09-19T11:48:42.667Z,2188.00
2018-09-19T11:49:42.696Z,1072.00
2018-09-19T11:50:42.727Z,2804.00
2018-09-19T11:51:42.754Z,560.00
2018-09-19T11:52:42.787Z,448.00
2018-09-19T11:53:42.811Z,432.00
2018-09-19T11:54:42.835Z,920.00
2018-09-19T11:55:42.859Z,520.00
2018-09-19T11:56:42.893Z,524.00
2018-09-19T11:57:42.923Z,1748.00
2018-09-19T11:58:42.961Z,1816.00
2018-09-19T11:59:42.968Z,1600.00
2018-09-19T12:00:43.000Z,1720.00
2018-09-19T12:01:43.030Z,1848.00
2018-09-19T12:02:43.058Z,2180.00
2018-09-19T12:03:43.083Z,2536.00
2018-09-19T12:04:43.107Z,2584.00
2018-09-19T12:05:43.156Z,2460.00
2018-09-19T12:06:43.172Z,1992.00
2018-09-19T12:07:43.191Z,1704.00
2018-09-19T12:08:43.219Z,1508.00
2018-09-19T12:09:43.254Z,1580.00
2018-09-19T12:10:43.308Z,1708.00
2018-09-19T12:11:43.315Z,2156.00
2018-09-19T12:12:43.340Z,2544.00
2018-09-19T12:13:43.360Z,2624.00
2018-09-19T12:14:43.395Z,2332.00
2018-09-19T12:15:43.416Z,2128.00
2018-09-19T12:16:43.442Z,1796.00
2018-09-19T12:17:43.481Z,1544.00
2018-09-19T12:18:43.502Z,1336.00
2018-09-19T12:19:43.525Z,1208.00
2018-09-19T12:20:43.561Z,1152.00
2018-09-19T12:21:43.584Z,1040.00
2018-09-19T12:22:43.612Z,992.00
2018-09-19T12:23:43.639Z,928.00
2018-09-19T12:24:43.668Z,940.00
2018-09-19T12:25:43.700Z,856.00
2018-09-19T12:26:43.796Z,860.00
2018-09-19T12:27:43.757Z,852.00
2018-09-19T12:28:43.924Z,824.00
2018-09-19T12:29:43.828Z,828.00
2018-09-19T12:30:43.853Z,836.00
2018-09-19T12:31:43.878Z,880.00
2018-09-19T12:32:43.901Z,920.00
2018-09-19T12:33:43.929Z,1092.00
2018-09-19T12:34:43.949Z,856.00
2018-09-19T12:35:43.980Z,996.00
2018-09-19T12:36:44.006Z,884.00
2018-09-19T12:37:44.033Z,808.00
2018-09-19T12:38:44.066Z,732.00
2018-09-19T12:39:44.209Z,792.00
2018-09-19T12:40:44.114Z,872.00
2018-09-19T12:41:44.142Z,1120.00
2018-09-19T12:42:44.176Z,1248.00
2018-09-19T12:43:44.196Z,1268.00
2018-09-19T12:44:44.226Z,1172.00
2018-09-19T12:45:44.256Z,1072.00
2018-09-19T12:46:44.285Z,788.00
2018-09-19T12:47:44.311Z,768.00
2018-09-19T12:48:44.347Z,640.00
2018-09-19T12:49:44.377Z,584.00
2018-09-19T12:50:44.958Z,620.00